Terminal Aerodrome Forecast
Issued by NWS Grand Junction, CO

Home | Current Version | Previous Version | Text Only | Print | Product List | Glossary On
Versions: 1 2 3 4 5 6 7 8 9 10 11 12 13 14 15 16 17 18 19 20 21 22 23 24 25 26 27 28 29 30 31 32
000
FTUS45 KGJT 011130
TAFGJT
TAF
KGJT 011130Z 0112/0212 VRB05KT P6SM BKN110
     FM011600 14005KT P6SM FEW110 SCT140
     FM012000 23009KT P6SM VCTS SCT090CB BKN140
     FM020200 34006KT P6SM FEW120 BKN200=

USA.gov is the U.S. government's official web portal to all federal, state and local government web resources and services.